Time;durP1;ratioP1;P1;durP2;ratioP2;P2;SDS_P1;SDS_P2;PMS_P1;PMS_P2;Temp;Humidity;BMP_temperature;BMP_pressure;BME280_temperature;BME280_humidity;BME280_pressure;Samples;Min_cycle;Max_cycle;Signal;HPM_P1;HPM_P2
2022/10/03 00:00:39;;;;;;;;;22.50;22.00;;;;;;;;5021616;27;50850;-47
2022/10/03 00:03:07;;;;;;;;;25.25;23.00;;;;;;;;5038932;27;50915;-47
2022/10/03 00:05:51;;;;;;;;;27.75;25.00;;;;;;;;5009439;27;51019;-47
2022/10/03 00:08:28;;;;;;;;;27.00;24.75;;;;;;;;5009090;28;51538;-48
2022/10/03 00:11:03;;;;;;;;;27.50;26.50;;;;;;;;5006445;27;51862;-47
2022/10/03 00:13:28;;;;;;;;;27.75;26.25;;;;;;;;5009388;28;51035;-47
2022/10/03 00:15:53;;;;;;;;;28.25;25.25;;;;;;;;5032894;27;50932;-49
2022/10/03 00:18:37;;;;;;;;;26.60;25.20;;;;;;;;5013768;27;51360;-48
2022/10/03 00:21:28;;;;;;;;;24.50;21.75;;;;;;;;5008836;27;51868;-47
2022/10/03 00:23:53;;;;;;;;;20.50;19.75;;;;;;;;5007344;28;51249;-47
2022/10/03 00:26:29;;;;;;;;;12.00;11.75;;;;;;;;5008936;27;50888;-47
2022/10/03 00:29:12;;;;;;;;;16.00;15.25;;;;;;;;5009100;28;50867;-47
2022/10/03 00:31:44;;;;;;;;;11.75;10.75;;;;;;;;5008694;27;51785;-46
2022/10/03 00:34:23;;;;;;;;;15.00;15.00;;;;;;;;5008259;28;51197;-47
2022/10/03 00:37:18;;;;;;;;;12.00;9.75;;;;;;;;5011601;28;51068;-48
2022/10/03 00:39:43;;;;;;;;;8.75;8.00;;;;;;;;5030282;28;51269;-47
2022/10/03 00:42:17;;;;;;;;;8.60;8.60;;;;;;;;5011492;27;51804;-47
2022/10/03 00:44:42;;;;;;;;;9.50;8.00;;;;;;;;5012024;27;50929;-46
2022/10/03 00:47:23;;;;;;;;;13.00;11.75;;;;;;;;5011838;27;51040;-47
2022/10/03 00:50:06;;;;;;;;;10.25;9.00;;;;;;;;5004872;28;51148;-47
2022/10/03 00:52:50;;;;;;;;;10.25;10.00;;;;;;;;5010348;28;52013;-47
2022/10/03 00:55:36;;;;;;;;;10.25;8.75;;;;;;;;5011255;27;50948;-45
2022/10/03 00:58:09;;;;;;;;;7.00;7.00;;;;;;;;5022124;27;51043;-47
2022/10/03 01:00:35;;;;;;;;;12.00;11.50;;;;;;;;5019630;27;50908;-47
2022/10/03 01:03:26;;;;;;;;;8.75;8.50;;;;;;;;5009987;28;51717;-46
2022/10/03 01:05:51;;;;;;;;;11.50;10.75;;;;;;;;5010929;28;51089;-47
2022/10/03 01:08:16;;;;;;;;;12.25;11.00;;;;;;;;5010091;28;51111;-46
2022/10/03 01:10:44;;;;;;;;;12.25;12.25;;;;;;;;5011277;28;51436;-46
2022/10/03 01:13:13;;;;;;;;;9.75;9.50;;;;;;;;5011225;27;50982;-46
2022/10/03 01:15:44;;;;;;;;;10.75;9.50;;;;;;;;5024246;27;51044;-47
2022/10/03 01:18:09;;;;;;;;;11.00;9.00;;;;;;;;5039169;27;50896;-46
2022/10/03 01:20:42;;;;;;;;;13.00;12.25;;;;;;;;5005744;27;51353;-46
2022/10/03 01:23:13;;;;;;;;;12.75;12.25;;;;;;;;5010101;28;52019;-46
2022/10/03 01:25:41;;;;;;;;;13.50;12.75;;;;;;;;5010979;28;51112;-47
2022/10/03 01:30:56;;;;;;;;;16.75;13.00;;;;;;;;5011505;28;51000;-45
2022/10/03 01:33:27;;;;;;;;;12.25;11.00;;;;;;;;5009149;28;50980;-47
2022/10/03 01:35:55;;;;;;;;;16.00;15.00;;;;;;;;5011185;27;50961;-46
2022/10/03 01:38:29;;;;;;;;;12.50;12.50;;;;;;;;5010022;27;51055;-47
2022/10/03 01:41:02;;;;;;;;;12.00;12.00;;;;;;;;4997747;28;51134;-47
2022/10/03 01:43:37;;;;;;;;;14.50;13.75;;;;;;;;5010984;28;51860;-47
2022/10/03 01:46:16;;;;;;;;;13.00;12.25;;;;;;;;5010483;27;51078;-46
2022/10/03 01:48:48;;;;;;;;;14.00;12.25;;;;;;;;5010521;28;51027;-48
2022/10/03 01:51:32;;;;;;;;;14.50;14.50;;;;;;;;5010838;28;51282;-46
2022/10/03 01:54:06;;;;;;;;;15.00;13.25;;;;;;;;5013105;28;52021;-49
2022/10/03 01:56:38;;;;;;;;;17.00;15.25;;;;;;;;5010276;28;51103;-46
2022/10/03 01:59:28;;;;;;;;;14.50;14.50;;;;;;;;5010856;28;51002;-47
2022/10/03 02:02:12;;;;;;;;;16.00;14.00;;;;;;;;5046789;27;51148;-47
2022/10/03 02:04:49;;;;;;;;;14.75;13.50;;;;;;;;5010354;28;51845;-46
2022/10/03 02:07:20;;;;;;;;;13.50;12.75;;;;;;;;5010649;27;51022;-46
2022/10/03 02:10:05;;;;;;;;;12.50;12.25;;;;;;;;5010390;28;51083;-46
2022/10/03 02:12:38;;;;;;;;;11.25;10.25;;;;;;;;5002218;28;52214;-46
2022/10/03 02:15:04;;;;;;;;;11.75;11.25;;;;;;;;5010336;27;51086;-46
2022/10/03 02:17:46;;;;;;;;;11.75;11.50;;;;;;;;5073353;27;50952;-46
2022/10/03 02:20:19;;;;;;;;;13.75;12.25;;;;;;;;5009142;28;51086;-46
2022/10/03 02:22:46;;;;;;;;;14.00;13.00;;;;;;;;5010543;28;50986;-46
2022/10/03 02:25:26;;;;;;;;;15.50;15.00;;;;;;;;5010122;28;50932;-47
2022/10/03 02:28:19;;;;;;;;;17.00;15.25;;;;;;;;5003727;28;51102;-46
2022/10/03 02:30:56;;;;;;;;;13.25;13.25;;;;;;;;4998736;28;51117;-45
2022/10/03 02:33:43;;;;;;;;;17.25;15.75;;;;;;;;5008401;28;51334;-47
2022/10/03 02:36:27;;;;;;;;;20.00;18.25;;;;;;;;5010000;28;51979;-48
2022/10/03 02:39:11;;;;;;;;;19.75;18.25;;;;;;;;5010319;28;50870;-48
2022/10/03 02:41:36;;;;;;;;;16.50;16.50;;;;;;;;5010254;28;50932;-48
2022/10/03 02:44:25;;;;;;;;;17.00;17.00;;;;;;;;5010310;28;51196;-50
2022/10/03 02:47:09;;;;;;;;;24.25;22.50;;;;;;;;5009603;28;50947;-46
2022/10/03 02:49:53;;;;;;;;;23.00;22.25;;;;;;;;5010345;28;51142;-47
2022/10/03 02:52:37;;;;;;;;;25.50;23.75;;;;;;;;5013830;28;51149;-49
2022/10/03 02:55:08;;;;;;;;;15.75;15.75;;;;;;;;5010810;28;51419;-47
2022/10/03 02:57:59;;;;;;;;;20.50;19.00;;;;;;;;5009840;27;52301;-47
2022/10/03 03:00:40;;;;;;;;;19.75;17.25;;;;;;;;5023637;27;50873;-47
2022/10/03 03:03:30;;;;;;;;;17.00;16.75;;;;;;;;5015520;27;51020;-47
2022/10/03 03:06:06;;;;;;;;;19.50;17.50;;;;;;;;5010103;28;51141;-46
2022/10/03 03:08:38;;;;;;;;;20.25;17.50;;;;;;;;5002974;27;51998;-47
2022/10/03 03:11:15;;;;;;;;;17.50;16.75;;;;;;;;5009449;28;50917;-46
2022/10/03 03:13:50;;;;;;;;;23.50;22.00;;;;;;;;5008411;28;51064;-47
2022/10/03 03:16:19;;;;;;;;;22.50;19.75;;;;;;;;5049571;27;51395;-47
2022/10/03 03:19:03;;;;;;;;;22.75;21.00;;;;;;;;5013129;27;51840;-47
2022/10/03 03:21:28;;;;;;;;;18.75;17.75;;;;;;;;5009834;28;50904;-47
2022/10/03 03:24:12;;;;;;;;;18.75;18.75;;;;;;;;5009872;27;51065;-46
2022/10/03 03:26:49;;;;;;;;;22.75;21.50;;;;;;;;5009904;28;51287;-46
2022/10/03 03:29:33;;;;;;;;;23.75;21.50;;;;;;;;5009628;28;50958;-46
2022/10/03 03:32:02;;;;;;;;;20.00;17.75;;;;;;;;5008322;28;51140;-46
2022/10/03 03:34:56;;;;;;;;;24.50;20.00;;;;;;;;5007292;28;51108;-45
2022/10/03 03:37:24;;;;;;;;;23.50;22.50;;;;;;;;5037775;28;51266;-46
2022/10/03 03:39:58;;;;;;;;;25.75;22.75;;;;;;;;5009019;27;50977;-48
2022/10/03 03:42:37;;;;;;;;;20.25;18.25;;;;;;;;5007474;28;50962;-46
2022/10/03 03:45:05;;;;;;;;;22.75;22.00;;;;;;;;5009405;28;51040;-46
2022/10/03 03:47:41;;;;;;;;;24.50;22.00;;;;;;;;5007620;28;51215;-46
2022/10/03 03:50:13;;;;;;;;;22.50;22.50;;;;;;;;5035423;28;54207;-46
2022/10/03 03:52:57;;;;;;;;;21.50;20.75;;;;;;;;4995907;28;51078;-45
2022/10/03 03:55:28;;;;;;;;;23.25;20.75;;;;;;;;4997325;28;51326;-46
2022/10/03 03:58:12;;;;;;;;;26.75;24.25;;;;;;;;5004759;28;51191;-46
2022/10/03 04:00:44;;;;;;;;;22.75;22.75;;;;;;;;5007840;27;50935;-45
2022/10/03 04:03:26;;;;;;;;;24.25;20.25;;;;;;;;5008834;28;51146;-46
2022/10/03 04:06:02;;;;;;;;;17.00;16.25;;;;;;;;5009140;28;51049;-46
2022/10/03 04:08:46;;;;;;;;;15.25;13.50;;;;;;;;5007889;27;51161;-46
2022/10/03 04:11:11;;;;;;;;;16.50;15.50;;;;;;;;5007742;28;51600;-47
2022/10/03 04:13:56;;;;;;;;;14.50;12.75;;;;;;;;5006343;27;52442;-48
2022/10/03 04:18:56;;;;;;;;;19.75;18.75;;;;;;;;5031544;27;51162;-46
2022/10/03 04:19:26;;;;;;;;;18.75;17.00;;;;;;;;5005226;28;51213;-48
2022/10/03 04:22:08;;;;;;;;;20.50;19.50;;;;;;;;5004495;28;51126;-47
2022/10/03 04:24:39;;;;;;;;;20.75;17.25;;;;;;;;5009318;27;50904;-46
2022/10/03 04:27:18;;;;;;;;;20.75;18.75;;;;;;;;5011598;28;51101;-46
2022/10/03 04:29:46;;;;;;;;;21.75;17.00;;;;;;;;5009782;28;51004;-50
2022/10/03 04:32:12;;;;;;;;;25.50;20.25;;;;;;;;5004961;28;51424;-46
2022/10/03 04:34:40;;;;;;;;;16.25;14.75;;;;;;;;5008457;28;51003;-47
2022/10/03 04:37:26;;;;;;;;;15.25;15.00;;;;;;;;5008186;28;50982;-45
2022/10/03 04:40:03;;;;;;;;;17.00;14.25;;;;;;;;5003762;28;51045;-46
2022/10/03 04:42:46;;;;;;;;;13.75;13.00;;;;;;;;5005959;28;51004;-46
2022/10/03 04:45:11;;;;;;;;;23.75;18.75;;;;;;;;5008793;28;50964;-46
2022/10/03 04:47:39;;;;;;;;;17.60;14.80;;;;;;;;5010665;28;51147;-45
2022/10/03 04:50:10;;;;;;;;;16.75;15.75;;;;;;;;5007396;28;51067;-46
2022/10/03 04:52:39;;;;;;;;;16.75;14.75;;;;;;;;5015819;28;50932;-49
2022/10/03 04:55:42;;;;;;;;;17.50;16.75;;;;;;;;5008505;28;51328;-48
2022/10/03 04:58:29;;;;;;;;;17.00;15.50;;;;;;;;5061921;27;51285;-46
2022/10/03 05:01:16;;;;;;;;;12.50;11.50;;;;;;;;5070522;28;51029;-46
2022/10/03 05:04:00;;;;;;;;;13.50;13.00;;;;;;;;5024475;28;52064;-47
2022/10/03 05:06:41;;;;;;;;;12.50;11.75;;;;;;;;5008411;28;51102;-45
2022/10/03 05:09:20;;;;;;;;;15.50;13.75;;;;;;;;5026900;27;51118;-46
2022/10/03 05:12:09;;;;;;;;;13.50;12.50;;;;;;;;5009969;28;51202;-47
2022/10/03 05:14:49;;;;;;;;;18.25;15.25;;;;;;;;5006267;28;51286;-46
2022/10/03 05:17:20;;;;;;;;;16.75;15.00;;;;;;;;5011701;27;51140;-45
2022/10/03 05:19:46;;;;;;;;;12.75;12.00;;;;;;;;5010078;28;51207;-46
2022/10/03 05:22:26;;;;;;;;;13.75;13.00;;;;;;;;5002153;27;53022;-49
2022/10/03 05:25:08;;;;;;;;;16.25;14.50;;;;;;;;5006606;28;51817;-46
2022/10/03 05:27:50;;;;;;;;;10.25;8.75;;;;;;;;5021807;27;50980;-48
2022/10/03 05:30:19;;;;;;;;;12.00;12.00;;;;;;;;5035708;27;51096;-47
2022/10/03 05:32:50;;;;;;;;;11.50;11.00;;;;;;;;5049297;27;50947;-47
2022/10/03 05:35:21;;;;;;;;;13.25;12.25;;;;;;;;5007010;28;51805;-46
2022/10/03 05:37:57;;;;;;;;;12.25;11.75;;;;;;;;5010242;28;51058;-46
2022/10/03 05:40:23;;;;;;;;;12.50;12.50;;;;;;;;5009699;28;51229;-46
2022/10/03 05:42:48;;;;;;;;;15.00;13.00;;;;;;;;5010572;28;51888;-47
2022/10/03 05:45:23;;;;;;;;;17.25;15.75;;;;;;;;5061771;27;51035;-47
2022/10/03 05:47:48;;;;;;;;;18.75;15.75;;;;;;;;5006709;28;51005;-49
2022/10/03 05:50:32;;;;;;;;;15.50;13.50;;;;;;;;5010006;27;52020;-46
2022/10/03 05:53:07;;;;;;;;;16.00;14.75;;;;;;;;5014229;28;51062;-47
2022/10/03 05:55:51;;;;;;;;;13.50;12.50;;;;;;;;5005288;28;52942;-47
2022/10/03 05:58:34;;;;;;;;;15.75;14.00;;;;;;;;5010163;28;50995;-47
2022/10/03 06:01:09;;;;;;;;;12.25;12.25;;;;;;;;5048361;27;51216;-47
2022/10/03 06:03:43;;;;;;;;;13.50;12.75;;;;;;;;4997540;28;51014;-46
2022/10/03 06:06:11;;;;;;;;;14.50;13.50;;;;;;;;5009875;27;52286;-45
2022/10/03 06:08:42;;;;;;;;;11.50;11.00;;;;;;;;5014653;27;51236;-46
2022/10/03 06:11:30;;;;;;;;;13.50;10.75;;;;;;;;5009706;28;51142;-46
2022/10/03 06:14:14;;;;;;;;;16.25;12.50;;;;;;;;5014659;28;51178;-47
2022/10/03 06:16:42;;;;;;;;;14.00;13.00;;;;;;;;5016461;27;52023;-47
2022/10/03 06:19:22;;;;;;;;;11.50;11.00;;;;;;;;5009559;27;51031;-47
2022/10/03 06:22:05;;;;;;;;;10.00;9.50;;;;;;;;5057292;27;51050;-46
2022/10/03 06:24:49;;;;;;;;;12.50;12.50;;;;;;;;5008811;28;50976;-46
2022/10/03 06:27:14;;;;;;;;;11.00;10.50;;;;;;;;5008190;28;51843;-46
2022/10/03 06:29:49;;;;;;;;;10.25;10.25;;;;;;;;5009461;28;51090;-48
2022/10/03 06:32:24;;;;;;;;;10.25;8.25;;;;;;;;5009872;27;51149;-48
2022/10/03 06:34:55;;;;;;;;;11.00;11.00;;;;;;;;5009820;28;51209;-45
2022/10/03 06:37:39;;;;;;;;;11.25;11.00;;;;;;;;5009869;27;52024;-47
2022/10/03 06:40:20;;;;;;;;;10.00;7.50;;;;;;;;5008344;28;50969;-48
2022/10/03 06:43:04;;;;;;;;;6.00;5.25;;;;;;;;5010083;28;51031;-45
2022/10/03 06:45:43;;;;;;;;;11.00;10.00;;;;;;;;5009120;28;51133;-47
2022/10/03 06:48:21;;;;;;;;;8.25;8.25;;;;;;;;4996274;28;51718;-47
2022/10/03 06:50:49;;;;;;;;;10.00;9.50;;;;;;;;5009740;27;50848;-46
2022/10/03 06:53:29;;;;;;;;;9.50;9.25;;;;;;;;5013185;27;51121;-46
2022/10/03 06:56:12;;;;;;;;;13.00;11.00;;;;;;;;5009777;27;51408;-47
2022/10/03 06:58:49;;;;;;;;;8.00;7.50;;;;;;;;5009695;27;51675;-47
2022/10/03 07:01:23;;;;;;;;;12.00;11.00;;;;;;;;5020617;27;51151;-49
2022/10/03 07:04:05;;;;;;;;;10.00;9.00;;;;;;;;5009581;28;50922;-47
2022/10/03 07:06:39;;;;;;;;;9.00;8.75;;;;;;;;5009734;28;51082;-48
2022/10/03 07:09:20;;;;;;;;;9.00;7.25;;;;;;;;5009183;27;52056;-48
2022/10/03 07:12:03;;;;;;;;;13.25;12.25;;;;;;;;5008626;28;51047;-47
2022/10/03 07:14:43;;;;;;;;;12.00;10.00;;;;;;;;5008213;27;51075;-47
2022/10/03 07:17:14;;;;;;;;;11.50;10.50;;;;;;;;5062783;27;51086;-47
2022/10/03 07:19:39;;;;;;;;;10.50;9.25;;;;;;;;5009224;28;50993;-47
2022/10/03 07:22:24;;;;;;;;;12.00;11.50;;;;;;;;5009710;27;51088;-47
2022/10/03 07:24:56;;;;;;;;;11.75;10.25;;;;;;;;5009009;27;50870;-46
2022/10/03 07:27:23;;;;;;;;;11.25;10.50;;;;;;;;5009906;27;51090;-45
2022/10/03 07:30:04;;;;;;;;;13.00;10.75;;;;;;;;5008884;27;51775;-45
2022/10/03 07:32:48;;;;;;;;;12.50;12.50;;;;;;;;5008426;28;51118;-46
2022/10/03 07:35:16;;;;;;;;;13.25;10.75;;;;;;;;4996675;28;51142;-47
2022/10/03 07:40:47;;;;;;;;;14.00;10.75;;;;;;;;5008664;28;51126;-47
2022/10/03 07:43:18;;;;;;;;;12.25;11.00;;;;;;;;5008669;28;50902;-46
2022/10/03 07:46:03;;;;;;;;;13.50;12.50;;;;;;;;5007998;27;51046;-47
2022/10/03 07:48:34;;;;;;;;;14.75;14.00;;;;;;;;5008946;28;51372;-47
2022/10/03 07:51:14;;;;;;;;;21.75;19.50;;;;;;;;5008322;28;51292;-47
2022/10/03 07:53:54;;;;;;;;;17.75;13.25;;;;;;;;5014731;28;50922;-45
2022/10/03 07:56:35;;;;;;;;;14.00;12.25;;;;;;;;5008694;28;50822;-47
2022/10/03 07:59:33;;;;;;;;;14.25;13.50;;;;;;;;5009074;27;51016;-48
2022/10/03 08:02:28;;;;;;;;;14.50;13.75;;;;;;;;5029715;27;51255;-46
2022/10/03 08:05:13;;;;;;;;;7.25;6.00;;;;;;;;5012839;28;50905;-47
2022/10/03 08:07:38;;;;;;;;;13.25;12.00;;;;;;;;5007259;28;50941;-48
2022/10/03 08:10:15;;;;;;;;;11.75;11.75;;;;;;;;5008880;27;51384;-47
2022/10/03 08:12:41;;;;;;;;;12.50;12.25;;;;;;;;5008510;28;52796;-48
2022/10/03 08:15:12;;;;;;;;;14.00;13.25;;;;;;;;5003308;27;51175;-47
2022/10/03 08:17:56;;;;;;;;;13.50;12.75;;;;;;;;5076424;27;51292;-48
2022/10/03 08:20:22;;;;;;;;;16.00;12.50;;;;;;;;5008663;28;51072;-47
2022/10/03 08:22:51;;;;;;;;;13.00;12.00;;;;;;;;5008531;28;52760;-47
2022/10/03 08:25:35;;;;;;;;;12.75;11.75;;;;;;;;5008216;28;51158;-47
2022/10/03 08:28:06;;;;;;;;;14.00;13.00;;;;;;;;5008561;28;50964;-46
2022/10/03 08:30:51;;;;;;;;;12.75;10.75;;;;;;;;5008670;27;51291;-46
2022/10/03 08:33:23;;;;;;;;;14.25;13.50;;;;;;;;5008115;28;51976;-47
2022/10/03 08:36:08;;;;;;;;;22.75;19.00;;;;;;;;5003168;27;51311;-46
2022/10/03 08:38:53;;;;;;;;;13.25;13.00;;;;;;;;5013066;28;51505;-47
2022/10/03 08:41:21;;;;;;;;;17.50;16.00;;;;;;;;5008358;28;51012;-47
2022/10/03 08:43:48;;;;;;;;;16.50;13.50;;;;;;;;5008338;27;51837;-47
2022/10/03 08:46:31;;;;;;;;;14.75;13.00;;;;;;;;5008316;28;51093;-46
2022/10/03 08:49:16;;;;;;;;;16.00;15.25;;;;;;;;5008140;28;51248;-45
2022/10/03 08:51:51;;;;;;;;;10.25;10.25;;;;;;;;5008350;28;51080;-47
2022/10/03 08:54:23;;;;;;;;;17.00;16.00;;;;;;;;5011933;28;51074;-46
2022/10/03 08:56:55;;;;;;;;;15.75;15.25;;;;;;;;5009558;28;50939;-46
2022/10/03 08:59:30;;;;;;;;;18.00;15.75;;;;;;;;5011095;28;51087;-46
2022/10/03 09:01:55;;;;;;;;;17.50;15.75;;;;;;;;5030941;27;51232;-46
2022/10/03 09:04:20;;;;;;;;;18.80;18.60;;;;;;;;5011129;27;51121;-47
2022/10/03 09:06:51;;;;;;;;;16.25;14.75;;;;;;;;5011178;27;50952;-46
2022/10/03 09:09:16;;;;;;;;;4.00;2.50;;;;;;;;5010775;27;50931;-45
2022/10/03 09:12:13;;;;;;;;;17.40;16.00;;;;;;;;5011280;27;51163;-46
2022/10/03 09:14:57;;;;;;;;;16.25;16.00;;;;;;;;5000556;28;50948;-46
2022/10/03 09:17:41;;;;;;;;;17.75;15.50;;;;;;;;5070887;27;50926;-51
2022/10/03 09:20:09;;;;;;;;;21.25;17.00;;;;;;;;5010787;28;51096;-48
2022/10/03 09:22:34;;;;;;;;;20.25;19.00;;;;;;;;5010945;28;51233;-49
2022/10/03 09:25:18;;;;;;;;;16.00;14.00;;;;;;;;5010151;27;51067;-47
2022/10/03 09:28:02;;;;;;;;;20.25;20.25;;;;;;;;5011008;28;50853;-48
2022/10/03 09:30:49;;;;;;;;;18.00;17.00;;;;;;;;5010701;28;51051;-48
2022/10/03 09:33:33;;;;;;;;;17.50;15.75;;;;;;;;5010860;28;50851;-48
2022/10/03 09:36:03;;;;;;;;;16.00;16.00;;;;;;;;5002476;27;51033;-46
2022/10/03 09:38:47;;;;;;;;;21.00;18.75;;;;;;;;5009901;28;51224;-47
2022/10/03 09:41:30;;;;;;;;;10.25;10.25;;;;;;;;5010468;27;51239;-47
2022/10/03 09:43:56;;;;;;;;;20.50;19.50;;;;;;;;5010601;28;51095;-47
2022/10/03 09:46:30;;;;;;;;;20.00;19.75;;;;;;;;5010428;27;51862;-53
2022/10/03 09:49:20;;;;;;;;;21.00;21.00;;;;;;;;5010620;27;51078;-48
2022/10/03 09:52:14;;;;;;;;;15.50;15.00;;;;;;;;5010628;28;50959;-49
2022/10/03 09:54:42;;;;;;;;;18.25;17.50;;;;;;;;5004176;28;51233;-49
2022/10/03 09:57:17;;;;;;;;;22.00;19.25;;;;;;;;5009855;28;50983;-46
2022/10/03 09:59:42;;;;;;;;;19.75;16.50;;;;;;;;5010475;28;50892;-46
2022/10/03 10:02:26;;;;;;;;;20.25;19.50;;;;;;;;5070577;27;51043;-47
2022/10/03 10:04:54;;;;;;;;;21.00;19.25;;;;;;;;5010508;27;51347;-46
2022/10/03 10:07:35;;;;;;;;;21.50;19.50;;;;;;;;5009556;28;51290;-47
2022/10/03 10:10:00;;;;;;;;;18.50;16.50;;;;;;;;5010025;27;50968;-45
2022/10/03 10:12:28;;;;;;;;;22.75;22.25;;;;;;;;5010339;27;51046;-49
2022/10/03 10:15:12;;;;;;;;;21.50;21.00;;;;;;;;5010479;27;51201;-47
2022/10/03 10:18:00;;;;;;;;;24.75;20.75;;;;;;;;5010239;27;53041;-46
2022/10/03 10:20:40;;;;;;;;;21.25;19.50;;;;;;;;5010017;28;51014;-47
2022/10/03 10:23:06;;;;;;;;;25.75;22.75;;;;;;;;5008496;27;50949;-47
2022/10/03 10:25:43;;;;;;;;;23.25;22.50;;;;;;;;4995748;28;51160;-47
2022/10/03 10:28:35;;;;;;;;;18.50;17.75;;;;;;;;5009568;28;51162;-47
2022/10/03 10:31:20;;;;;;;;;19.00;18.50;;;;;;;;5017360;28;51297;-47
2022/10/03 10:33:54;;;;;;;;;20.25;19.50;;;;;;;;5009464;28;51039;-47
2022/10/03 10:36:19;;;;;;;;;26.75;23.75;;;;;;;;5010080;27;50999;-47
2022/10/03 10:38:48;;;;;;;;;22.00;21.25;;;;;;;;5004023;27;53668;-47
2022/10/03 10:41:31;;;;;;;;;22.75;21.00;;;;;;;;5009973;27;50983;-45
2022/10/03 10:44:15;;;;;;;;;19.50;17.75;;;;;;;;5009353;28;51203;-45
2022/10/03 10:46:40;;;;;;;;;21.75;21.00;;;;;;;;5009731;28;51332;-46
2022/10/03 10:49:29;;;;;;;;;20.50;20.25;;;;;;;;5009405;28;51860;-48
2022/10/03 10:51:57;;;;;;;;;18.00;17.50;;;;;;;;5009823;28;50815;-47
2022/10/03 10:54:34;;;;;;;;;21.75;20.75;;;;;;;;5014205;28;51260;-47
2022/10/03 10:56:59;;;;;;;;;23.25;21.75;;;;;;;;5009792;27;50993;-48
2022/10/03 10:59:43;;;;;;;;;21.00;20.25;;;;;;;;5009139;27;52153;-47
2022/10/03 11:02:27;;;;;;;;;23.75;22.75;;;;;;;;5034173;27;51062;-47
2022/10/03 11:05:05;;;;;;;;;22.50;21.50;;;;;;;;5009512;28;51119;-48
2022/10/03 11:07:51;;;;;;;;;23.50;22.25;;;;;;;;5009389;28;51252;-46
2022/10/03 11:10:32;;;;;;;;;25.00;22.25;;;;;;;;5008709;28;51055;-46
2022/10/03 11:13:00;;;;;;;;;23.25;21.75;;;;;;;;5009453;27;51009;-48
2022/10/03 11:15:25;;;;;;;;;19.50;18.50;;;;;;;;5012884;27;51068;-47
2022/10/03 11:17:50;;;;;;;;;23.25;21.00;;;;;;;;5074713;27;51111;-45
2022/10/03 11:20:34;;;;;;;;;21.75;20.25;;;;;;;;5008899;27;51809;-48
2022/10/03 11:23:05;;;;;;;;;26.25;26.25;;;;;;;;5009293;28;51039;-48
2022/10/03 11:25:36;;;;;;;;;23.75;22.00;;;;;;;;5008896;28;50957;-48
2022/10/03 11:28:15;;;;;;;;;21.25;19.00;;;;;;;;5009475;28;51107;-49
2022/10/03 11:30:49;;;;;;;;;22.50;19.75;;;;;;;;5008733;28;53181;-47
2022/10/03 11:33:34;;;;;;;;;23.75;21.75;;;;;;;;5008908;28;51039;-46
2022/10/03 11:36:02;;;;;;;;;16.75;15.25;;;;;;;;5008503;27;50945;-49
2022/10/03 11:38:29;;;;;;;;;17.75;17.00;;;;;;;;5008156;28;51066;-47
2022/10/03 11:41:17;;;;;;;;;18.75;18.00;;;;;;;;5008953;28;51010;-47
2022/10/03 11:43:43;;;;;;;;;15.00;14.25;;;;;;;;5018360;28;50969;-47
2022/10/03 11:46:18;;;;;;;;;20.50;19.00;;;;;;;;5008802;27;51224;-48
2022/10/03 11:48:55;;;;;;;;;26.50;20.75;;;;;;;;5009701;28;51051;-48
2022/10/03 11:51:23;;;;;;;;;14.50;14.50;;;;;;;;5008506;28;51056;-47
2022/10/03 11:54:08;;;;;;;;;24.00;22.75;;;;;;;;5010632;27;51070;-48
2022/10/03 11:56:38;;;;;;;;;21.25;18.25;;;;;;;;5008774;28;51165;-48
2022/10/03 11:59:06;;;;;;;;;17.75;17.75;;;;;;;;5008480;27;51249;-48
2022/10/03 12:01:43;;;;;;;;;16.75;16.00;;;;;;;;5016627;27;52024;-48
2022/10/03 12:04:22;;;;;;;;;20.00;19.50;;;;;;;;5008053;27;51200;-47
2022/10/03 12:09:46;;;;;;;;;16.75;14.50;;;;;;;;5008455;28;51051;-47
2022/10/03 12:12:12;;;;;;;;;17.75;15.75;;;;;;;;5003892;28;51699;-46
2022/10/03 12:14:45;;;;;;;;;18.50;17.00;;;;;;;;4997364;28;51042;-48
2022/10/03 12:17:15;;;;;;;;;16.50;16.00;;;;;;;;5036587;27;50967;-46
2022/10/03 12:19:49;;;;;;;;;15.75;14.75;;;;;;;;5008769;28;51045;-47
2022/10/03 12:22:21;;;;;;;;;14.00;13.75;;;;;;;;5007921;27;51889;-46
2022/10/03 12:24:48;;;;;;;;;17.50;17.00;;;;;;;;5007639;28;51098;-48
2022/10/03 12:27:22;;;;;;;;;16.00;15.25;;;;;;;;5008270;28;51006;-46
2022/10/03 12:29:57;;;;;;;;;18.25;16.50;;;;;;;;5008086;28;51070;-46
2022/10/03 12:32:42;;;;;;;;;20.00;18.75;;;;;;;;5010107;28;52776;-48
2022/10/03 12:35:08;;;;;;;;;19.25;16.75;;;;;;;;5011095;28;51018;-49
2022/10/03 12:37:56;;;;;;;;;15.75;15.50;;;;;;;;5009841;27;50968;-48
2022/10/03 12:40:38;;;;;;;;;18.00;16.75;;;;;;;;5010459;28;50940;-47
2022/10/03 12:43:23;;;;;;;;;22.50;20.50;;;;;;;;5010330;28;52140;-47
2022/10/03 12:45:57;;;;;;;;;19.50;18.50;;;;;;;;5010664;27;51064;-48
2022/10/03 12:48:23;;;;;;;;;14.00;14.00;;;;;;;;5010741;28;51185;-47
2022/10/03 12:50:55;;;;;;;;;14.00;13.50;;;;;;;;5010863;27;50862;-48
2022/10/03 12:53:45;;;;;;;;;17.00;15.00;;;;;;;;5016199;28;52266;-47
2022/10/03 12:56:31;;;;;;;;;18.75;17.00;;;;;;;;5010761;28;51211;-48
2022/10/03 12:58:56;;;;;;;;;17.50;15.25;;;;;;;;5010839;28;51028;-47
2022/10/03 13:01:24;;;;;;;;;15.75;15.75;;;;;;;;5011074;28;51966;-47
2022/10/03 13:04:18;;;;;;;;;16.75;16.00;;;;;;;;5010794;27;51740;-47
2022/10/03 13:07:04;;;;;;;;;18.00;17.50;;;;;;;;5011135;27;50977;-48
2022/10/03 13:09:36;;;;;;;;;22.00;19.00;;;;;;;;5009406;28;50939;-47
2022/10/03 13:12:20;;;;;;;;;14.50;14.00;;;;;;;;5011514;28;51085;-45
2022/10/03 13:15:04;;;;;;;;;20.75;18.00;;;;;;;;5010290;27;51871;-47
2022/10/03 13:17:39;;;;;;;;;19.75;18.75;;;;;;;;5044856;27;51151;-46
2022/10/03 13:20:25;;;;;;;;;17.25;17.25;;;;;;;;5010375;28;51133;-46
2022/10/03 13:22:56;;;;;;;;;14.50;14.25;;;;;;;;5010327;28;52089;-46
2022/10/03 13:25:45;;;;;;;;;15.33;14.67;;;;;;;;5010459;28;52234;-47
2022/10/03 13:28:17;;;;;;;;;17.75;17.75;;;;;;;;5010878;28;51161;-47
2022/10/03 13:30:55;;;;;;;;;25.00;20.25;;;;;;;;5010774;28;51030;-47
2022/10/03 13:33:23;;;;;;;;;17.50;15.75;;;;;;;;5010773;28;51119;-46
2022/10/03 13:36:01;;;;;;;;;17.75;17.50;;;;;;;;5010304;28;52081;-47
2022/10/03 13:38:45;;;;;;;;;12.00;11.75;;;;;;;;5010157;28;50994;-46
2022/10/03 13:41:20;;;;;;;;;21.25;21.00;;;;;;;;5010688;28;51396;-47
2022/10/03 13:44:08;;;;;;;;;18.00;18.00;;;;;;;;5009381;27;51138;-47
2022/10/03 13:46:37;;;;;;;;;19.25;18.25;;;;;;;;5010207;28;51006;-50
2022/10/03 13:49:09;;;;;;;;;18.25;18.00;;;;;;;;5010345;28;50920;-47
2022/10/03 13:51:35;;;;;;;;;19.25;18.00;;;;;;;;5010938;28;51110;-47
2022/10/03 13:54:10;;;;;;;;;16.25;15.25;;;;;;;;5023755;27;50969;-48
2022/10/03 13:56:53;;;;;;;;;19.25;18.00;;;;;;;;5010662;28;52071;-47
2022/10/03 13:59:37;;;;;;;;;21.75;17.50;;;;;;;;5010208;28;50985;-47
2022/10/03 14:02:12;;;;;;;;;16.00;16.00;;;;;;;;5015070;27;51043;-48
2022/10/03 14:04:47;;;;;;;;;19.75;18.75;;;;;;;;4997825;28;50906;-47
2022/10/03 14:07:32;;;;;;;;;15.33;14.67;;;;;;;;5009781;28;51838;-47
2022/10/03 14:10:03;;;;;;;;;19.25;18.00;;;;;;;;5008707;27;50898;-47
2022/10/03 14:12:38;;;;;;;;;16.75;16.75;;;;;;;;5010300;27;50977;-48
2022/10/03 14:15:12;;;;;;;;;17.75;16.75;;;;;;;;5007051;28;51322;-46
2022/10/03 14:17:45;;;;;;;;;17.67;15.67;;;;;;;;5065856;27;53442;-47
2022/10/03 14:20:18;;;;;;;;;19.33;18.00;;;;;;;;5008869;28;52063;-46
2022/10/03 14:22:46;;;;;;;;;18.00;17.00;;;;;;;;5010106;28;50925;-46
2022/10/03 14:25:34;;;;;;;;;14.67;14.33;;;;;;;;5010193;27;51068;-48
2022/10/03 14:28:25;;;;;;;;;9.00;8.00;;;;;;;;5009968;27;52795;-48
2022/10/03 14:30:56;;;;;;;;;16.00;14.00;;;;;;;;5009888;28;51043;-50
2022/10/03 14:33:30;;;;;;;;;15.67;15.33;;;;;;;;5009577;28;51246;-46
2022/10/03 14:35:56;;;;;;;;;15.00;13.67;;;;;;;;5010119;27;50942;-46
2022/10/03 14:39:00;;;;;;;;;19.50;17.75;;;;;;;;5005532;27;51907;-52
2022/10/03 14:41:31;;;;;;;;;18.00;16.67;;;;;;;;5010028;27;50983;-49
2022/10/03 14:44:02;;;;;;;;;17.25;17.00;;;;;;;;5008730;28;51168;-48
2022/10/03 14:46:30;;;;;;;;;11.33;11.33;;;;;;;;5010665;28;51222;-49
2022/10/03 14:48:58;;;;;;;;;16.00;14.33;;;;;;;;5001785;28;51830;-48
2022/10/03 14:51:41;;;;;;;;;13.67;13.00;;;;;;;;5010148;28;51005;-46
2022/10/03 14:54:16;;;;;;;;;17.67;17.00;;;;;;;;5013861;27;51078;-48
2022/10/03 14:56:43;;;;;;;;;16.67;15.33;;;;;;;;5010686;28;51116;-47
2022/10/03 14:59:17;;;;;;;;;19.50;19.50;;;;;;;;5009654;27;52012;-49
2022/10/03 15:01:48;;;;;;;;;18.00;17.00;;;;;;;;5030523;27;51113;-49
2022/10/03 15:04:16;;;;;;;;;15.25;13.25;;;;;;;;5009919;27;51114;-49
2022/10/03 15:06:44;;;;;;;;;17.00;16.50;;;;;;;;5010550;28;51180;-49
2022/10/03 15:09:15;;;;;;;;;13.50;12.75;;;;;;;;5009847;27;51724;-48
2022/10/03 15:11:51;;;;;;;;;14.25;13.50;;;;;;;;5008443;28;51198;-46
2022/10/03 15:14:17;;;;;;;;;14.00;13.50;;;;;;;;5009977;27;51130;-50
2022/10/03 15:16:48;;;;;;;;;16.00;15.00;;;;;;;;5059739;27;50990;-48
2022/10/03 15:19:16;;;;;;;;;15.00;13.00;;;;;;;;5008818;27;51081;-47